createdAt,value
2022-08-07T00:00:14.909Z,101331.97
2022-08-07T00:02:45.572Z,101328.75
2022-08-07T00:05:12.530Z,101328.75
2022-08-07T00:07:40.909Z,101328.53
2022-08-07T00:10:27.022Z,101337.09
2022-08-07T00:13:00.606Z,101329.84
2022-08-07T00:15:38.383Z,101329.88
2022-08-07T00:18:20.219Z,101335.22
2022-08-07T00:20:54.183Z,101329.25
2022-08-07T00:23:21.622Z,101326.53
2022-08-07T00:25:59.112Z,101329.78
2022-08-07T00:28:33.441Z,101321.72
2022-08-07T00:31:12.613Z,101320.38
2022-08-07T00:33:43.151Z,101321.28
2022-08-07T00:36:14.563Z,101328.41
2022-08-07T00:38:43.763Z,101331.75
2022-08-07T00:41:15.087Z,101325.28
2022-08-07T00:43:59.485Z,101319.91
2022-08-07T00:46:29.218Z,101321.72
2022-08-07T00:49:01.925Z,101326.34
2022-08-07T00:51:56.739Z,101321.19
2022-08-07T00:54:19.619Z,101316.66
2022-08-07T00:56:51.211Z,101315.84
2022-08-07T00:59:20.216Z,101315.41
2022-08-07T01:02:00.053Z,101320.72
2022-08-07T01:04:27.998Z,101314.53
2022-08-07T01:06:59.589Z,101322.19
2022-08-07T01:09:35.615Z,101317.56
2022-08-07T01:12:29.846Z,101315.56
2022-08-07T01:15:01.118Z,101320.44
2022-08-07T01:17:29.828Z,101315.22
2022-08-07T01:20:08.152Z,101319.25
2022-08-07T01:22:41.497Z,101324.84
2022-08-07T01:25:54.498Z,101319.53
2022-08-07T01:28:08.625Z,101316.44
2022-08-07T01:30:40.033Z,101326.88
2022-08-07T01:33:10.669Z,101326.41
2022-08-07T01:35:54.055Z,101331.94
2022-08-07T01:38:29.202Z,101332.06
2022-08-07T01:41:03.791Z,101327.28
2022-08-07T01:43:34.809Z,101326.81
2022-08-07T01:46:08.167Z,101333.97
2022-08-07T01:48:42.205Z,101325.31
2022-08-07T01:51:58.570Z,101319.69
2022-08-07T01:54:19.208Z,101321.00
2022-08-07T01:57:02.360Z,101324.22
2022-08-07T01:59:38.078Z,101318.28
2022-08-07T02:03:12.319Z,101313.78
2022-08-07T02:05:43.313Z,101314.94
2022-08-07T02:08:26.543Z,101314.69
2022-08-07T02:10:58.582Z,101310.06
2022-08-07T02:13:57.458Z,101304.88
2022-08-07T02:16:28.386Z,101309.72
2022-08-07T02:20:04.298Z,101315.16
2022-08-07T02:21:57.781Z,101303.31
2022-08-07T02:24:29.580Z,101304.91
2022-08-07T02:27:01.208Z,101298.97
2022-08-07T02:29:30.606Z,101302.25
2022-08-07T02:32:01.158Z,101298.78
2022-08-07T02:34:30.261Z,101298.28
2022-08-07T02:37:01.906Z,101296.94
2022-08-07T02:39:43.308Z,101300.00
2022-08-07T02:42:18.000Z,101282.91
2022-08-07T02:44:51.969Z,101286.44
2022-08-07T02:47:24.769Z,101290.06
2022-08-07T02:49:59.894Z,101289.25
2022-08-07T02:53:07.020Z,101280.25
2022-08-07T02:56:03.371Z,101278.69
2022-08-07T02:58:33.480Z,101281.44
2022-08-07T03:01:03.559Z,101282.78
2022-08-07T03:03:49.459Z,101286.31
2022-08-07T03:06:26.032Z,101286.03
2022-08-07T03:09:07.446Z,101281.16
2022-08-07T03:11:51.708Z,101280.41
2022-08-07T03:14:27.638Z,101282.09
2022-08-07T03:16:55.039Z,101279.16
2022-08-07T03:19:22.904Z,101279.28
2022-08-07T03:21:51.221Z,101283.88
2022-08-07T03:24:27.243Z,101282.81
2022-08-07T03:27:01.081Z,101279.31
2022-08-07T03:29:46.183Z,101281.50
2022-08-07T03:32:25.913Z,101284.00
2022-08-07T03:35:01.190Z,101281.28
2022-08-07T03:37:53.824Z,101281.84
2022-08-07T03:40:27.434Z,101291.09
2022-08-07T03:43:00.758Z,101287.53
2022-08-07T03:45:30.848Z,101282.69
2022-08-07T03:48:10.090Z,101281.88
2022-08-07T03:50:39.169Z,101284.06
2022-08-07T03:53:11.407Z,101288.38
2022-08-07T03:55:57.293Z,101287.28
2022-08-07T03:59:05.301Z,101289.97
2022-08-07T04:01:17.475Z,101288.31
2022-08-07T04:03:49.799Z,101292.38
2022-08-07T04:06:37.364Z,101289.97
2022-08-07T04:09:15.049Z,101288.66
2022-08-07T04:12:27.462Z,101286.22
2022-08-07T04:14:43.899Z,101294.91
2022-08-07T04:17:21.096Z,101297.06
2022-08-07T04:20:09.018Z,101296.22
2022-08-07T04:22:37.407Z,101291.63
2022-08-07T04:25:11.796Z,101295.41
2022-08-07T04:27:44.300Z,101296.22
2022-08-07T04:30:35.553Z,101303.03
2022-08-07T04:33:15.445Z,101302.47
2022-08-07T04:35:50.152Z,101304.63
2022-08-07T04:38:19.415Z,101304.59
2022-08-07T04:40:51.663Z,101304.03
2022-08-07T04:44:10.026Z,101307.81
2022-08-07T04:46:34.814Z,101306.22
2022-08-07T04:49:37.772Z,101309.97
2022-08-07T04:52:19.280Z,101314.28
2022-08-07T04:58:13.926Z,101315.88
2022-08-07T04:58:33.733Z,101318.59
2022-08-07T05:01:18.976Z,101318.25
2022-08-07T05:04:06.468Z,101329.34
2022-08-07T05:06:51.601Z,101329.59
2022-08-07T05:10:11.075Z,101324.19
2022-08-07T05:12:52.892Z,101331.53
2022-08-07T05:15:32.154Z,101323.41
2022-08-07T05:18:08.519Z,101320.13
2022-08-07T05:20:45.217Z,101329.34
2022-08-07T05:23:23.220Z,101332.84
2022-08-07T05:26:13.646Z,101328.81
2022-08-07T05:28:51.262Z,101346.16
2022-08-07T05:31:35.277Z,101343.16
2022-08-07T05:34:11.116Z,101345.00
2022-08-07T05:36:43.803Z,101357.44
2022-08-07T05:40:05.988Z,101347.63
2022-08-07T05:42:14.665Z,101353.78
2022-08-07T05:45:14.602Z,101354.78
2022-08-07T05:48:02.543Z,101354.72
2022-08-07T05:50:39.497Z,101362.59
2022-08-07T05:54:13.548Z,101358.72
2022-08-07T05:56:03.566Z,101364.09
2022-08-07T05:58:37.721Z,101363.56
2022-08-07T06:01:11.021Z,101361.88
2022-08-07T06:03:57.283Z,101358.84
2022-08-07T06:06:29.728Z,101367.50
2022-08-07T06:09:04.345Z,101361.75
2022-08-07T06:11:37.905Z,101360.09
2022-08-07T06:14:12.467Z,101364.88
2022-08-07T06:16:55.834Z,101361.25
2022-08-07T06:19:47.826Z,101361.66
2022-08-07T06:22:23.062Z,101364.81
2022-08-07T06:25:01.352Z,101363.75
2022-08-07T06:27:44.149Z,101363.47
2022-08-07T06:30:32.128Z,101361.84
2022-08-07T06:33:15.849Z,101356.91
2022-08-07T06:35:49.240Z,101358.81
2022-08-07T06:38:32.926Z,101361.56
2022-08-07T06:41:06.795Z,101365.38
2022-08-07T06:43:39.374Z,101365.38
2022-08-07T06:46:31.237Z,101357.72
2022-08-07T06:49:04.329Z,101359.56
2022-08-07T06:51:35.258Z,101361.81
2022-08-07T06:55:31.951Z,101355.78
2022-08-07T06:57:00.464Z,101354.97
2022-08-07T07:00:17.647Z,101357.94
2022-08-07T07:02:48.873Z,101354.53
2022-08-07T07:05:14.105Z,101356.84
2022-08-07T07:08:06.825Z,101354.47
2022-08-07T07:10:36.711Z,101359.00
2022-08-07T07:13:10.023Z,101356.28
2022-08-07T07:15:44.483Z,101362.78
2022-08-07T07:18:47.914Z,101356.94
2022-08-07T07:21:27.329Z,101362.59
2022-08-07T07:24:12.986Z,101355.44
2022-08-07T07:26:51.883Z,101355.78
2022-08-07T07:29:57.269Z,101351.03
2022-08-07T07:32:13.941Z,101352.44
2022-08-07T07:34:48.572Z,101347.66
2022-08-07T07:37:21.981Z,101347.13
2022-08-07T07:40:10.175Z,101345.94
2022-08-07T07:42:50.900Z,101348.34
2022-08-07T07:46:35.564Z,101341.78
2022-08-07T07:48:35.286Z,101344.53
2022-08-07T07:51:08.124Z,101348.47
2022-08-07T07:53:52.121Z,101339.50
2022-08-07T07:56:30.093Z,101344.16
2022-08-07T07:59:01.977Z,101338.69
2022-08-07T08:02:02.667Z,101338.69
2022-08-07T08:04:25.439Z,101333.25
2022-08-07T08:06:55.408Z,101331.81
2022-08-07T08:09:29.593Z,101340.28
2022-08-07T08:12:02.245Z,101336.69
2022-08-07T08:14:34.519Z,101337.09
2022-08-07T08:17:32.400Z,101330.19
2022-08-07T08:20:18.752Z,101328.41
2022-08-07T08:23:08.456Z,101317.81
2022-08-07T08:25:58.144Z,101323.50
2022-08-07T08:28:37.754Z,101317.41
2022-08-07T08:31:16.371Z,101313.44
2022-08-07T08:33:55.663Z,101309.75
2022-08-07T08:36:29.798Z,101306.63
2022-08-07T08:39:02.065Z,101299.38
2022-08-07T08:41:58.611Z,101290.59
2022-08-07T08:44:29.577Z,101287.66
2022-08-07T08:47:05.369Z,101288.56
2022-08-07T08:50:04.709Z,101287.13
2022-08-07T08:52:40.789Z,101275.66
2022-08-07T08:55:53.151Z,101271.03
2022-08-07T08:58:24.937Z,101266.63
2022-08-07T09:01:15.798Z,101269.50
2022-08-07T09:04:26.009Z,101268.66
2022-08-07T09:06:55.585Z,101267.47
2022-08-07T09:09:47.540Z,101259.34
2022-08-07T09:12:31.063Z,101249.16
2022-08-07T09:16:24.118Z,101258.13
2022-08-07T09:17:59.621Z,101239.22
2022-08-07T09:20:58.051Z,101238.19
2022-08-07T09:24:54.968Z,101233.94
2022-08-07T09:26:47.721Z,101234.25
2022-08-07T09:30:05.065Z,101229.72
2022-08-07T09:32:31.120Z,101224.63
2022-08-07T09:36:03.065Z,101218.88
2022-08-07T09:38:29.143Z,101221.84
2022-08-07T09:41:14.147Z,101207.91
2022-08-07T09:44:06.609Z,101216.59
2022-08-07T09:47:51.239Z,101205.56
2022-08-07T09:50:01.738Z,101203.50
2022-08-07T09:53:07.915Z,101186.19
2022-08-07T09:56:37.274Z,101187.44
2022-08-07T09:59:44.569Z,101184.00
2022-08-07T10:02:57.570Z,101175.13
2022-08-07T10:06:17.496Z,101170.00
2022-08-07T10:09:07.880Z,101174.91
2022-08-07T10:12:02.214Z,101159.25
2022-08-07T10:15:06.621Z,101156.38
2022-08-07T10:18:01.403Z,101148.94
2022-08-07T10:20:57.912Z,101146.13
2022-08-07T10:24:18.414Z,101142.44
2022-08-07T10:27:10.315Z,101139.59
2022-08-07T10:29:59.294Z,101130.97
2022-08-07T10:32:37.018Z,101128.34
2022-08-07T10:35:56.420Z,101119.41
2022-08-07T10:38:35.831Z,101117.44
2022-08-07T10:41:46.341Z,101110.63
2022-08-07T10:44:28.400Z,101109.69
2022-08-07T10:47:27.215Z,101113.50
2022-08-07T10:50:28.076Z,101092.94
2022-08-07T10:53:21.398Z,101104.34
2022-08-07T10:56:02.475Z,101097.81
2022-08-07T10:58:33.055Z,101087.41
2022-08-07T11:01:12.753Z,101089.69
2022-08-07T11:03:55.049Z,101084.50
2022-08-07T11:07:03.030Z,101091.44
2022-08-07T11:10:09.100Z,101073.22
2022-08-07T11:12:39.169Z,101065.94
2022-08-07T11:15:17.925Z,101056.31
2022-08-07T11:18:03.564Z,101066.06
2022-08-07T11:20:56.961Z,101075.50
2022-08-07T11:23:58.065Z,101065.34
2022-08-07T11:26:33.831Z,101058.59
2022-08-07T11:29:13.133Z,101059.59
2022-08-07T11:32:26.236Z,101059.72
2022-08-07T11:34:59.718Z,101054.41
2022-08-07T11:37:58.164Z,101053.56
2022-08-07T11:40:51.818Z,101048.34
2022-08-07T11:43:41.596Z,101044.97
2022-08-07T11:46:28.137Z,101045.78
2022-08-07T11:50:11.376Z,101037.38
2022-08-07T11:52:35.732Z,101033.66
2022-08-07T11:56:26.104Z,101036.13
2022-08-07T11:58:34.887Z,101042.19
2022-08-07T12:01:06.841Z,101041.78
2022-08-07T12:03:48.973Z,101027.25
2022-08-07T12:06:51.644Z,101026.53
2022-08-07T12:09:43.012Z,101021.41
2022-08-07T12:12:19.454Z,101017.69
2022-08-07T12:15:01.413Z,101021.28
2022-08-07T12:17:59.507Z,101016.16
2022-08-07T12:20:46.345Z,101028.91
2022-08-07T12:24:05.052Z,101026.69
2022-08-07T12:26:42.081Z,101024.78
2022-08-07T12:29:38.358Z,101021.34
2022-08-07T12:32:19.472Z,101018.59
2022-08-07T12:34:49.495Z,101028.97
2022-08-07T12:37:23.387Z,101032.94
2022-08-07T12:39:58.925Z,101024.91
2022-08-07T12:42:32.017Z,101027.00
2022-08-07T12:45:06.489Z,101027.47
2022-08-07T12:47:54.187Z,101023.56
2022-08-07T12:50:49.151Z,101028.84
2022-08-07T12:54:03.103Z,101029.22
2022-08-07T12:56:33.641Z,101030.00
2022-08-07T12:59:02.339Z,101024.72
2022-08-07T13:01:43.307Z,101030.63
2022-08-07T13:04:34.508Z,101031.44
2022-08-07T13:08:12.265Z,101017.28
2022-08-07T13:10:51.687Z,101020.47
2022-08-07T13:13:46.894Z,101015.72
2022-08-07T13:16:46.746Z,101006.88
2022-08-07T13:19:46.211Z,101011.56
2022-08-07T13:22:32.667Z,101006.78
2022-08-07T13:25:24.194Z,101005.13
2022-08-07T13:28:13.528Z,101012.69
2022-08-07T13:31:02.169Z,100998.09
2022-08-07T13:34:34.375Z,100996.88
2022-08-07T13:36:39.825Z,100994.13
2022-08-07T13:39:28.431Z,100989.38
2022-08-07T13:42:10.126Z,100999.31
2022-08-07T13:44:39.553Z,100990.19
2022-08-07T13:47:09.351Z,100989.41
2022-08-07T13:50:33.660Z,100977.53
2022-08-07T13:52:39.687Z,100977.94
2022-08-07T13:55:25.457Z,100977.56
2022-08-07T13:58:28.032Z,100987.91
2022-08-07T14:01:09.094Z,100974.34
2022-08-07T14:04:07.396Z,100971.63
2022-08-07T14:06:37.103Z,100980.72
2022-08-07T14:10:00.507Z,100976.69
2022-08-07T14:12:10.511Z,100975.72
2022-08-07T14:14:43.696Z,100973.91
2022-08-07T14:17:32.523Z,100968.34
2022-08-07T14:20:40.658Z,100959.66
2022-08-07T14:23:08.549Z,100963.66
2022-08-07T14:25:48.040Z,100952.31
2022-08-07T14:28:16.980Z,100953.53
2022-08-07T14:30:52.211Z,100967.72
2022-08-07T14:33:22.327Z,100953.41
2022-08-07T14:35:55.755Z,100945.38
2022-08-07T14:38:31.300Z,100957.28
2022-08-07T14:41:04.185Z,100959.63
2022-08-07T14:43:59.429Z,100945.44
2022-08-07T14:46:31.443Z,100947.03
2022-08-07T14:49:55.584Z,100948.59
2022-08-07T14:54:43.276Z,100943.91
2022-08-07T14:57:14.927Z,100945.56
2022-08-07T15:00:04.694Z,100948.63
2022-08-07T15:02:34.546Z,100951.00
2022-08-07T15:05:03.600Z,100931.34
2022-08-07T15:07:47.727Z,100940.84
2022-08-07T15:10:26.486Z,100937.19
2022-08-07T15:13:06.179Z,100936.75
2022-08-07T15:15:42.998Z,100929.75
2022-08-07T15:18:35.719Z,100929.84
2022-08-07T15:21:44.240Z,100918.00
2022-08-07T15:25:15.194Z,100914.88
2022-08-07T15:27:16.267Z,100919.63
2022-08-07T15:30:04.385Z,100916.47
2022-08-07T15:32:40.145Z,100912.44
2022-08-07T15:36:01.329Z,100909.63
2022-08-07T15:38:29.827Z,100909.91
2022-08-07T15:41:23.605Z,100909.13
2022-08-07T15:43:59.562Z,100907.47
2022-08-07T15:46:31.660Z,100912.59
2022-08-07T15:49:16.287Z,100908.84
2022-08-07T15:54:39.654Z,100903.91
2022-08-07T15:57:27.835Z,100912.63
2022-08-07T15:59:59.331Z,100897.97
2022-08-07T16:02:35.666Z,100901.47
2022-08-07T16:05:15.570Z,100901.47
2022-08-07T16:08:33.394Z,100899.13
2022-08-07T16:10:37.428Z,100897.63
2022-08-07T16:13:17.935Z,100892.88
2022-08-07T16:16:42.895Z,100891.91
2022-08-07T16:19:43.112Z,100885.41
2022-08-07T16:22:33.882Z,100891.53
2022-08-07T16:25:10.062Z,100882.28
2022-08-07T16:30:07.194Z,100890.63
2022-08-07T16:31:51.707Z,100894.94
2022-08-07T16:34:39.567Z,100889.66
2022-08-07T16:38:05.547Z,100894.16
2022-08-07T16:40:31.861Z,100891.69
2022-08-07T16:43:23.966Z,100900.13
2022-08-07T16:47:05.955Z,100895.75
2022-08-07T16:50:27.289Z,100888.53
2022-08-07T16:52:52.715Z,100892.97
2022-08-07T16:55:47.385Z,100890.63
2022-08-07T16:59:10.229Z,100894.16
2022-08-07T17:01:56.775Z,100890.53
2022-08-07T17:05:01.369Z,100890.84
2022-08-07T17:07:55.174Z,100890.78
2022-08-07T17:10:32.479Z,100889.94
2022-08-07T17:13:25.239Z,100885.97
2022-08-07T17:16:17.144Z,100888.97
2022-08-07T17:19:15.868Z,100886.41
2022-08-07T17:21:50.599Z,100886.88
2022-08-07T17:24:31.709Z,100892.97
2022-08-07T17:27:32.550Z,100899.22
2022-08-07T17:30:14.764Z,100897.16
2022-08-07T17:33:00.156Z,100905.31
2022-08-07T17:35:55.202Z,100894.97
2022-08-07T17:38:32.187Z,100898.09
2022-08-07T17:42:04.983Z,100895.72
2022-08-07T17:44:15.673Z,100901.00
2022-08-07T17:47:08.274Z,100902.78
2022-08-07T17:49:55.427Z,100907.84
2022-08-07T17:52:36.156Z,100906.94
2022-08-07T17:55:13.397Z,100906.75
2022-08-07T17:57:58.923Z,100908.22
2022-08-07T18:00:34.743Z,100907.69
2022-08-07T18:03:18.950Z,100913.41
2022-08-07T18:06:01.989Z,100916.44
2022-08-07T18:08:34.160Z,100922.97
2022-08-07T18:12:06.354Z,100921.25
2022-08-07T18:14:18.064Z,100925.00
2022-08-07T18:17:07.440Z,100923.84
2022-08-07T18:21:06.520Z,100928.13
2022-08-07T18:22:54.087Z,100924.84
2022-08-07T18:25:40.505Z,100941.66
2022-08-07T18:28:58.675Z,100933.66
2022-08-07T18:32:07.179Z,100941.31
2022-08-07T18:35:00.837Z,100940.25
2022-08-07T18:38:59.080Z,100933.44
2022-08-07T18:40:50.122Z,100933.69
2022-08-07T18:44:16.425Z,100945.44
2022-08-07T18:47:07.884Z,100949.59
2022-08-07T18:50:38.441Z,100952.63
2022-08-07T18:53:15.104Z,100952.81
2022-08-07T18:56:01.554Z,100963.63
2022-08-07T18:58:51.580Z,100956.34
2022-08-07T19:02:32.725Z,100963.13
2022-08-07T19:04:54.663Z,100975.16
2022-08-07T19:08:03.741Z,100973.84
2022-08-07T19:10:51.585Z,100987.47
2022-08-07T19:13:44.035Z,100986.69
2022-08-07T19:17:01.527Z,100996.84
2022-08-07T19:19:58.443Z,100989.22
2022-08-07T19:23:03.168Z,100994.97
2022-08-07T19:26:24.982Z,100997.50
2022-08-07T19:30:53.734Z,101015.03
2022-08-07T19:32:10.232Z,101017.66
2022-08-07T19:34:34.001Z,101025.69
2022-08-07T19:37:09.889Z,101026.34
2022-08-07T19:39:57.856Z,101032.56
2022-08-07T19:42:31.417Z,101035.56
2022-08-07T19:45:09.329Z,101034.66
2022-08-07T19:47:42.076Z,101035.19
2022-08-07T19:50:43.663Z,101041.75
2022-08-07T19:52:59.072Z,101039.69
2022-08-07T19:55:56.684Z,101038.06
2022-08-07T19:58:22.192Z,101037.88
2022-08-07T20:00:57.842Z,101043.13
2022-08-07T20:03:35.182Z,101047.72
2022-08-07T20:06:05.040Z,101051.84
2022-08-07T20:08:35.971Z,101048.19
2022-08-07T20:11:12.252Z,101055.09
2022-08-07T20:13:53.797Z,101059.09
2022-08-07T20:16:34.896Z,101059.22
2022-08-07T20:19:06.145Z,101064.44
2022-08-07T20:21:41.679Z,101062.84
2022-08-07T20:24:23.444Z,101067.50
2022-08-07T20:26:54.813Z,101060.44
2022-08-07T20:29:49.347Z,101062.25
2022-08-07T20:32:22.662Z,101061.34
2022-08-07T20:34:56.200Z,101064.78
2022-08-07T20:37:47.050Z,101069.78
2022-08-07T20:40:32.693Z,101062.00
2022-08-07T20:43:03.192Z,101062.56
2022-08-07T20:46:27.011Z,101062.25
2022-08-07T20:48:29.531Z,101058.25
2022-08-07T20:51:03.606Z,101053.44
2022-08-07T20:54:04.421Z,101064.41
2022-08-07T20:56:30.684Z,101059.13
2022-08-07T20:59:02.789Z,101056.63
2022-08-07T21:01:45.565Z,101059.88
2022-08-07T21:04:27.936Z,101055.63
2022-08-07T21:06:58.133Z,101041.47
2022-08-07T21:09:53.274Z,101042.13
2022-08-07T21:12:29.031Z,101038.81
2022-08-07T21:15:02.494Z,101043.47
2022-08-07T21:18:03.696Z,101029.31
2022-08-07T21:20:30.342Z,101038.41
2022-08-07T21:23:08.682Z,101040.69
2022-08-07T21:25:56.982Z,101034.75
2022-08-07T21:28:48.824Z,101047.19
2022-08-07T21:31:49.398Z,101045.78
2022-08-07T21:34:46.097Z,101039.97
2022-08-07T21:37:57.952Z,101033.81
2022-08-07T21:40:52.370Z,101038.03
2022-08-07T21:43:47.576Z,101033.56
2022-08-07T21:46:45.226Z,101038.25
2022-08-07T21:49:25.676Z,101031.16
2022-08-07T21:52:00.145Z,101031.84
2022-08-07T21:55:04.333Z,101027.69
2022-08-07T21:57:44.830Z,101036.28
2022-08-07T22:00:25.239Z,101026.19
2022-08-07T22:03:31.243Z,101031.19
2022-08-07T22:06:03.850Z,101033.66
2022-08-07T22:08:49.758Z,101033.66
2022-08-07T22:11:18.538Z,101033.81
2022-08-07T22:13:55.353Z,101033.69
2022-08-07T22:16:46.823Z,101029.34
2022-08-07T22:19:36.991Z,101042.69
2022-08-07T22:22:21.062Z,101037.59
2022-08-07T22:25:11.148Z,101038.72
2022-08-07T22:28:19.902Z,101053.22
2022-08-07T22:30:55.005Z,101050.47
2022-08-07T22:33:57.003Z,101045.66
2022-08-07T22:36:38.438Z,101048.59
2022-08-07T22:39:17.060Z,101056.16
2022-08-07T22:42:03.736Z,101049.88
2022-08-07T22:44:58.164Z,101054.41
2022-08-07T22:48:03.051Z,101058.25
2022-08-07T22:50:41.745Z,101053.28
2022-08-07T22:54:06.527Z,101071.78
2022-08-07T22:56:29.892Z,101066.03
2022-08-07T22:59:15.080Z,101064.28
2022-08-07T23:01:59.237Z,101061.56
2022-08-07T23:04:56.968Z,101058.66
2022-08-07T23:07:53.740Z,101055.44
2022-08-07T23:10:36.476Z,101058.34
2022-08-07T23:13:49.176Z,101058.34
2022-08-07T23:16:54.419Z,101070.69
2022-08-07T23:20:03.026Z,101064.44
2022-08-07T23:23:05.181Z,101062.38
2022-08-07T23:26:13.989Z,101067.34
2022-08-07T23:28:54.633Z,101063.66
2022-08-07T23:32:49.445Z,101067.97
2022-08-07T23:34:37.346Z,101066.88
2022-08-07T23:38:01.137Z,101063.81
2022-08-07T23:40:35.228Z,101066.84
2022-08-07T23:43:24.000Z,101075.34
2022-08-07T23:46:11.733Z,101067.31
2022-08-07T23:48:59.917Z,101059.47
2022-08-07T23:52:57.950Z,101064.75
2022-08-07T23:54:52.757Z,101065.91
2022-08-07T23:57:27.609Z,101071.03
